createdAt,value
2023-02-23T00:01:26.871Z,6.70
2023-02-23T00:03:58.959Z,6.75
2023-02-23T00:06:28.275Z,6.76
2023-02-23T00:08:54.991Z,6.84
2023-02-23T00:11:22.312Z,6.84
2023-02-23T00:13:50.324Z,6.85
2023-02-23T00:16:19.348Z,6.77
2023-02-23T00:18:51.210Z,6.73
2023-02-23T00:21:19.497Z,6.74
2023-02-23T00:23:51.041Z,6.76
2023-02-23T00:26:20.756Z,6.77
2023-02-23T00:28:49.034Z,6.80
2023-02-23T00:31:15.485Z,6.80
2023-02-23T00:33:42.525Z,6.87
2023-02-23T00:36:14.176Z,6.81
2023-02-23T00:38:41.720Z,6.98
2023-02-23T00:41:13.538Z,7.10
2023-02-23T00:43:47.753Z,7.09
2023-02-23T00:46:19.100Z,7.20
2023-02-23T00:48:46.041Z,7.17
2023-02-23T00:51:13.548Z,7.19
2023-02-23T00:53:40.875Z,7.31
2023-02-23T00:56:09.603Z,7.32
2023-02-23T00:58:36.750Z,7.30
2023-02-23T01:01:07.223Z,7.25
2023-02-23T01:03:34.224Z,7.34
2023-02-23T01:06:05.364Z,7.40
2023-02-23T01:08:37.651Z,7.36
2023-02-23T01:11:09.824Z,7.32
2023-02-23T01:13:37.213Z,7.35
2023-02-23T01:16:11.747Z,7.37
2023-02-23T01:18:40.009Z,7.36
2023-02-23T01:21:15.249Z,7.40
2023-02-23T01:23:41.756Z,7.42
2023-02-23T01:26:19.061Z,7.50
2023-02-23T01:28:50.584Z,7.46
2023-02-23T01:31:18.767Z,7.37
2023-02-23T01:33:45.996Z,7.44
2023-02-23T01:36:15.549Z,7.41
2023-02-23T01:38:42.020Z,7.38
2023-02-23T01:41:09.036Z,7.47
2023-02-23T01:43:55.194Z,7.46
2023-02-23T01:46:21.980Z,7.54
2023-02-23T01:48:48.716Z,7.46
2023-02-23T01:51:20.256Z,7.48
2023-02-23T01:54:09.765Z,7.53
2023-02-23T01:56:45.097Z,7.39
2023-02-23T01:59:15.186Z,7.54
2023-02-23T02:01:42.764Z,7.45
2023-02-23T02:04:16.596Z,7.51
2023-02-23T02:06:45.800Z,7.43
2023-02-23T02:09:19.499Z,7.30
2023-02-23T02:11:54.069Z,7.28
2023-02-23T02:14:27.293Z,7.38
2023-02-23T02:17:14.897Z,7.23
2023-02-23T02:20:06.434Z,7.23
2023-02-23T02:22:58.066Z,7.16
2023-02-23T02:25:31.600Z,7.21
2023-02-23T02:28:39.091Z,7.15
2023-02-23T02:31:15.567Z,7.20
2023-02-23T02:34:25.474Z,7.21
2023-02-23T02:37:09.879Z,7.20
2023-02-23T02:40:16.922Z,7.20
2023-02-23T02:42:55.308Z,7.10
2023-02-23T02:45:41.309Z,7.14
2023-02-23T02:48:19.611Z,7.13
2023-02-23T02:50:51.952Z,7.09
2023-02-23T02:53:26.650Z,7.05
2023-02-23T02:55:56.621Z,7.09
2023-02-23T02:58:25.533Z,7.01
2023-02-23T03:01:11.237Z,7.22
2023-02-23T03:04:00.267Z,7.21
2023-02-23T03:07:03.981Z,7.02
2023-02-23T03:10:02.840Z,7.09
2023-02-23T03:13:13.520Z,7.07
2023-02-23T03:16:21.652Z,6.97
2023-02-23T03:19:25.131Z,6.94
2023-02-23T03:22:19.433Z,7.24
2023-02-23T03:25:13.656Z,7.04
2023-02-23T03:28:08.017Z,7.07
2023-02-23T03:31:05.201Z,7.02
2023-02-23T03:34:07.370Z,7.03
2023-02-23T03:36:58.032Z,7.03
2023-02-23T03:39:51.507Z,6.99
2023-02-23T03:42:40.594Z,7.03
2023-02-23T03:45:31.589Z,7.04
2023-02-23T03:48:21.650Z,7.07
2023-02-23T03:51:12.807Z,7.07
2023-02-23T03:54:08.733Z,7.07
2023-02-23T03:56:57.519Z,7.08
2023-02-23T03:59:48.012Z,7.13
2023-02-23T04:02:37.044Z,7.09
2023-02-23T04:05:27.807Z,7.13
2023-02-23T04:08:14.282Z,7.15
2023-02-23T04:11:08.503Z,7.16
2023-02-23T04:13:37.995Z,7.26
2023-02-23T04:16:07.818Z,7.17
2023-02-23T04:18:37.062Z,7.19
2023-02-23T04:21:05.535Z,7.20
2023-02-23T04:23:32.691Z,7.27
2023-02-23T04:25:59.361Z,7.21
2023-02-23T04:28:27.298Z,7.41
2023-02-23T04:30:54.068Z,7.26
2023-02-23T04:33:25.400Z,7.34
2023-02-23T04:35:55.238Z,7.30
2023-02-23T04:38:23.156Z,7.18
2023-02-23T04:40:50.410Z,7.20
2023-02-23T04:43:17.027Z,7.17
2023-02-23T04:45:44.357Z,7.14
2023-02-23T04:48:10.756Z,7.21
2023-02-23T04:50:37.298Z,7.15
2023-02-23T04:53:03.820Z,7.16
2023-02-23T04:55:30.239Z,7.12
2023-02-23T04:57:59.456Z,7.17
2023-02-23T05:00:26.977Z,7.10
2023-02-23T05:02:53.982Z,7.34
2023-02-23T05:05:21.123Z,7.17
2023-02-23T05:07:47.663Z,7.10
2023-02-23T05:10:14.070Z,7.07
2023-02-23T05:12:40.480Z,7.14
2023-02-23T05:15:07.522Z,7.14
2023-02-23T05:17:33.947Z,7.17
2023-02-23T05:20:00.510Z,7.12
2023-02-23T05:22:27.069Z,7.26
2023-02-23T05:24:55.274Z,7.21
2023-02-23T05:27:22.876Z,7.21
2023-02-23T05:29:49.277Z,7.14
2023-02-23T05:32:15.801Z,7.17
2023-02-23T05:34:42.303Z,7.20
2023-02-23T05:37:09.196Z,7.16
2023-02-23T05:39:35.738Z,7.16
2023-02-23T05:42:02.308Z,7.21
2023-02-23T05:44:28.784Z,7.17
2023-02-23T05:46:55.357Z,7.22
2023-02-23T05:49:21.764Z,7.16
2023-02-23T05:51:48.631Z,7.11
2023-02-23T05:54:15.035Z,7.14
2023-02-23T05:56:42.551Z,7.13
2023-02-23T05:59:08.985Z,7.13
2023-02-23T06:01:35.903Z,7.16
2023-02-23T06:04:03.565Z,7.18
2023-02-23T06:06:31.076Z,7.20
2023-02-23T06:08:57.555Z,7.17
2023-02-23T06:11:24.005Z,7.16
2023-02-23T06:13:50.385Z,7.17
2023-02-23T06:16:16.912Z,7.26
2023-02-23T06:18:43.573Z,7.23
2023-02-23T06:21:10.111Z,7.25
2023-02-23T06:23:36.584Z,7.34
2023-02-23T06:26:03.279Z,7.24
2023-02-23T06:28:30.121Z,7.26
2023-02-23T06:30:57.229Z,7.27
2023-02-23T06:33:24.274Z,7.32
2023-02-23T06:35:50.741Z,7.41
2023-02-23T06:38:17.381Z,7.45
2023-02-23T06:40:44.191Z,7.32
2023-02-23T06:43:10.865Z,7.29
2023-02-23T06:45:37.285Z,7.27
2023-02-23T06:48:04.377Z,7.26
2023-02-23T06:50:31.083Z,7.22
2023-02-23T06:52:57.592Z,7.28
2023-02-23T06:55:24.486Z,7.37
2023-02-23T06:57:54.325Z,7.30
2023-02-23T07:00:21.339Z,7.23
2023-02-23T07:02:47.869Z,7.20
2023-02-23T07:05:14.278Z,7.18
2023-02-23T07:07:40.821Z,7.25
2023-02-23T07:10:08.407Z,7.22
2023-02-23T07:12:35.303Z,7.20
2023-02-23T07:15:04.019Z,7.17
2023-02-23T07:17:30.759Z,7.20
2023-02-23T07:19:57.516Z,7.22
2023-02-23T07:22:25.254Z,7.16
2023-02-23T07:24:51.910Z,7.15
2023-02-23T07:27:18.392Z,7.20
2023-02-23T07:29:44.779Z,7.20
2023-02-23T07:32:11.822Z,7.31
2023-02-23T07:34:38.269Z,7.24
2023-02-23T07:37:04.757Z,7.24
2023-02-23T07:39:31.779Z,7.16
2023-02-23T07:41:58.488Z,7.20
2023-02-23T07:44:24.863Z,7.17
2023-02-23T07:46:53.086Z,7.26
2023-02-23T07:49:19.634Z,7.41
2023-02-23T07:51:47.336Z,7.30
2023-02-23T07:54:14.831Z,7.28
2023-02-23T07:56:41.465Z,7.34
2023-02-23T07:59:07.894Z,7.23
2023-02-23T08:01:34.399Z,7.20
2023-02-23T08:04:01.261Z,7.25
2023-02-23T08:06:27.780Z,7.32
2023-02-23T08:08:54.379Z,7.25
2023-02-23T08:11:21.103Z,7.37
2023-02-23T08:13:47.647Z,7.37
2023-02-23T08:16:14.885Z,7.36
2023-02-23T08:18:41.400Z,7.31
2023-02-23T08:21:07.883Z,7.43
2023-02-23T08:23:34.863Z,7.33
2023-02-23T08:26:02.614Z,7.39
2023-02-23T08:28:30.805Z,7.34
2023-02-23T08:30:59.549Z,7.28
2023-02-23T08:33:26.311Z,7.33
2023-02-23T08:35:53.727Z,7.33
2023-02-23T08:38:20.529Z,7.41
2023-02-23T08:40:47.094Z,7.47
2023-02-23T08:43:13.572Z,7.32
2023-02-23T08:45:39.979Z,7.36
2023-02-23T08:48:07.749Z,7.27
2023-02-23T08:50:34.334Z,7.34
2023-02-23T08:53:01.051Z,7.33
2023-02-23T08:55:27.572Z,7.33
2023-02-23T08:57:54.247Z,7.35
2023-02-23T09:00:21.088Z,7.33
2023-02-23T09:02:48.185Z,7.40
2023-02-23T09:05:15.417Z,7.36
2023-02-23T09:07:45.187Z,7.35
2023-02-23T09:10:14.650Z,7.35
2023-02-23T09:12:41.079Z,7.46
2023-02-23T09:15:08.182Z,7.32
2023-02-23T09:17:34.624Z,7.33
2023-02-23T09:20:01.978Z,7.32
2023-02-23T09:22:28.413Z,7.34
2023-02-23T09:24:55.232Z,7.46
2023-02-23T09:27:21.749Z,7.45
2023-02-23T09:29:48.216Z,7.33
2023-02-23T09:32:14.907Z,7.39
2023-02-23T09:34:41.344Z,7.40
2023-02-23T09:37:08.558Z,7.46
2023-02-23T09:39:38.485Z,7.56
2023-02-23T09:42:14.488Z,7.49
2023-02-23T09:45:11.230Z,7.64
2023-02-23T09:47:51.654Z,7.67
2023-02-23T09:50:25.195Z,7.62
2023-02-23T09:53:01.161Z,7.66
2023-02-23T09:55:30.841Z,7.52
2023-02-23T09:58:05.998Z,7.47
2023-02-23T10:00:39.461Z,7.45
2023-02-23T10:03:22.813Z,7.53
2023-02-23T10:05:58.936Z,7.46
2023-02-23T10:08:41.868Z,7.47
2023-02-23T10:11:27.022Z,7.50
2023-02-23T10:14:41.645Z,7.54
2023-02-23T10:17:37.626Z,7.48
2023-02-23T10:20:30.002Z,7.39
2023-02-23T10:23:04.342Z,7.40
2023-02-23T10:25:33.988Z,7.41
2023-02-23T10:28:02.455Z,7.42
2023-02-23T10:30:32.736Z,7.48
2023-02-23T10:33:05.707Z,7.44
2023-02-23T10:35:33.691Z,7.48
2023-02-23T10:40:56.362Z,7.59
2023-02-23T10:43:23.214Z,7.58
2023-02-23T10:45:52.481Z,7.68
2023-02-23T10:48:24.536Z,7.57
2023-02-23T10:50:55.251Z,7.60
2023-02-23T10:53:27.780Z,7.67
2023-02-23T10:56:07.477Z,7.70
2023-02-23T10:59:00.115Z,7.70
2023-02-23T11:01:41.889Z,7.66
2023-02-23T11:04:31.212Z,7.63
2023-02-23T11:07:20.701Z,7.60
2023-02-23T11:09:48.461Z,7.64
2023-02-23T11:12:38.126Z,7.68
2023-02-23T11:15:46.314Z,7.60
2023-02-23T11:18:50.771Z,7.64
2023-02-23T11:21:37.302Z,7.65
2023-02-23T11:24:21.644Z,7.66
2023-02-23T11:26:51.518Z,7.71
2023-02-23T11:29:24.011Z,7.67
2023-02-23T11:31:54.417Z,7.60
2023-02-23T11:34:29.698Z,7.66
2023-02-23T11:37:08.346Z,7.58
2023-02-23T11:39:35.174Z,7.69
2023-02-23T11:42:14.737Z,7.66
2023-02-23T11:44:41.214Z,7.59
2023-02-23T11:47:17.230Z,7.66
2023-02-23T11:49:45.632Z,7.66
2023-02-23T11:52:18.136Z,7.66
2023-02-23T11:55:07.301Z,7.60
2023-02-23T11:57:35.951Z,7.77
2023-02-23T12:00:12.424Z,7.76
2023-02-23T12:02:58.568Z,7.71
2023-02-23T12:05:30.003Z,7.77
2023-02-23T12:08:17.243Z,7.64
2023-02-23T12:10:49.530Z,7.67
2023-02-23T12:13:59.473Z,7.76
2023-02-23T12:16:31.438Z,7.70
2023-02-23T12:19:23.757Z,7.73
2023-02-23T12:22:06.191Z,7.77
2023-02-23T12:24:56.526Z,7.74
2023-02-23T12:27:29.036Z,7.76
2023-02-23T12:30:17.313Z,7.93
2023-02-23T12:33:06.463Z,7.87
2023-02-23T12:35:49.597Z,7.90
2023-02-23T12:39:06.507Z,7.79
2023-02-23T12:41:41.348Z,7.90
2023-02-23T12:44:15.273Z,7.84
2023-02-23T12:46:51.158Z,7.81
2023-02-23T12:49:43.184Z,7.76
2023-02-23T12:52:10.467Z,7.81
2023-02-23T12:54:37.454Z,7.78
2023-02-23T12:57:16.359Z,7.71
2023-02-23T13:00:31.517Z,7.92
2023-02-23T13:03:15.844Z,7.77
2023-02-23T13:06:08.338Z,7.77
2023-02-23T13:08:56.700Z,7.81
2023-02-23T13:11:59.208Z,7.72
2023-02-23T13:14:30.230Z,7.86
2023-02-23T13:17:09.181Z,7.84
2023-02-23T13:19:47.374Z,7.86
2023-02-23T13:22:37.531Z,7.96
2023-02-23T13:25:24.594Z,7.87
2023-02-23T13:28:02.776Z,7.84
2023-02-23T13:30:35.894Z,7.92
2023-02-23T13:33:13.296Z,7.77
2023-02-23T13:35:40.249Z,7.93
2023-02-23T13:38:18.657Z,7.84
2023-02-23T13:40:58.433Z,7.87
2023-02-23T13:43:33.068Z,8.01
2023-02-23T13:46:12.169Z,8.03
2023-02-23T13:49:02.576Z,7.93
2023-02-23T13:51:51.705Z,8.03
2023-02-23T13:54:24.736Z,7.89
2023-02-23T13:57:01.364Z,7.78
2023-02-23T13:59:33.231Z,7.73
2023-02-23T14:02:06.640Z,7.75
2023-02-23T14:04:39.790Z,7.72
2023-02-23T14:07:09.326Z,7.77
2023-02-23T14:09:40.872Z,7.75
2023-02-23T14:12:40.673Z,7.73
2023-02-23T14:15:25.569Z,7.80
2023-02-23T14:18:03.531Z,7.72
2023-02-23T14:20:38.846Z,7.65
2023-02-23T14:23:20.818Z,7.64
2023-02-23T14:26:09.721Z,7.72
2023-02-23T14:29:01.431Z,7.66
2023-02-23T14:31:31.598Z,7.66
2023-02-23T14:34:00.406Z,7.71
2023-02-23T14:36:33.166Z,7.76
2023-02-23T14:39:08.236Z,7.60
2023-02-23T14:41:43.715Z,7.73
2023-02-23T14:44:28.311Z,7.80
2023-02-23T14:47:07.551Z,7.64
2023-02-23T14:49:40.305Z,7.58
2023-02-23T14:52:19.604Z,7.42
2023-02-23T14:54:46.809Z,7.46
2023-02-23T14:57:17.841Z,7.44
2023-02-23T14:59:45.411Z,7.29
2023-02-23T15:02:18.594Z,7.29
2023-02-23T15:04:45.454Z,7.31
2023-02-23T15:07:36.873Z,7.24
2023-02-23T15:10:11.583Z,7.21
2023-02-23T15:12:38.862Z,7.23
2023-02-23T15:15:14.556Z,7.23
2023-02-23T15:17:43.930Z,7.29
2023-02-23T15:20:19.699Z,7.23
2023-02-23T15:22:48.735Z,7.13
2023-02-23T15:25:18.890Z,7.13
2023-02-23T15:27:47.751Z,7.18
2023-02-23T15:30:33.048Z,7.12
2023-02-23T15:33:10.563Z,7.00
2023-02-23T15:35:54.405Z,7.07
2023-02-23T15:38:43.015Z,7.03
2023-02-23T15:41:37.113Z,7.07
2023-02-23T15:44:11.603Z,7.15
2023-02-23T15:46:38.867Z,7.05
2023-02-23T15:49:06.878Z,7.11
2023-02-23T15:51:48.633Z,7.09
2023-02-23T15:54:20.785Z,7.23
2023-02-23T15:56:57.271Z,7.03
2023-02-23T15:59:34.085Z,7.10
2023-02-23T16:02:11.040Z,6.99
2023-02-23T16:04:48.892Z,6.94
2023-02-23T16:07:18.213Z,6.99
2023-02-23T16:09:49.283Z,6.95
2023-02-23T16:12:23.842Z,7.00
2023-02-23T16:14:56.886Z,6.87
2023-02-23T16:17:35.113Z,7.02
2023-02-23T16:20:41.445Z,6.87
2023-02-23T16:23:33.406Z,6.88
2023-02-23T16:26:10.752Z,6.90
2023-02-23T16:28:43.573Z,6.83
2023-02-23T16:31:27.053Z,6.84
2023-02-23T16:34:00.423Z,6.86
2023-02-23T16:36:40.129Z,6.85
2023-02-23T16:39:11.322Z,6.80
2023-02-23T16:41:37.804Z,6.73
2023-02-23T16:44:07.149Z,6.86
2023-02-23T16:47:02.516Z,6.81
2023-02-23T16:49:30.176Z,6.70
2023-02-23T16:51:57.928Z,6.80
2023-02-23T16:54:24.728Z,6.86
2023-02-23T16:56:55.464Z,6.90
2023-02-23T16:59:23.466Z,6.69
2023-02-23T17:01:50.717Z,6.68
2023-02-23T17:04:19.246Z,6.68
2023-02-23T17:06:47.187Z,6.50
2023-02-23T17:09:13.647Z,6.57
2023-02-23T17:11:47.060Z,6.49
2023-02-23T17:14:25.081Z,6.44
2023-02-23T17:16:51.795Z,6.36
2023-02-23T17:19:18.665Z,6.41
2023-02-23T17:21:46.395Z,6.40
2023-02-23T17:24:13.476Z,6.44
2023-02-23T17:26:41.975Z,6.43
2023-02-23T17:29:08.412Z,6.35
2023-02-23T17:31:36.002Z,6.45
2023-02-23T17:34:02.631Z,6.44
2023-02-23T17:36:29.235Z,6.33
2023-02-23T17:38:58.824Z,6.39
2023-02-23T17:41:27.004Z,6.34
2023-02-23T17:43:54.396Z,6.33
2023-02-23T17:46:21.131Z,6.36
2023-02-23T17:48:47.617Z,6.32
2023-02-23T17:51:16.809Z,6.33
2023-02-23T17:53:43.495Z,6.34
2023-02-23T17:56:10.374Z,6.30
2023-02-23T17:58:37.611Z,6.40
2023-02-23T18:01:06.853Z,6.45
2023-02-23T18:03:35.382Z,6.51
2023-02-23T18:06:09.018Z,6.39
2023-02-23T18:08:36.554Z,6.28
2023-02-23T18:11:03.378Z,6.36
2023-02-23T18:13:30.735Z,6.37
2023-02-23T18:16:09.225Z,6.30
2023-02-23T18:18:37.928Z,6.37
2023-02-23T18:21:11.399Z,6.30
2023-02-23T18:23:37.879Z,6.33
2023-02-23T18:26:13.441Z,6.30
2023-02-23T18:28:41.855Z,6.29
2023-02-23T18:31:08.346Z,6.25
2023-02-23T18:33:35.876Z,6.28
2023-02-23T18:36:03.852Z,6.41
2023-02-23T18:38:30.708Z,6.45
2023-02-23T18:40:58.319Z,6.40
2023-02-23T18:43:24.744Z,6.33
2023-02-23T18:45:51.134Z,6.33
2023-02-23T18:48:17.645Z,6.23
2023-02-23T18:50:44.064Z,6.34
2023-02-23T18:53:10.928Z,6.07
2023-02-23T18:55:38.244Z,5.99
2023-02-23T18:58:05.751Z,5.84
2023-02-23T19:00:39.889Z,5.74
2023-02-23T19:03:07.319Z,5.44
2023-02-23T19:05:36.019Z,5.33
2023-02-23T19:08:04.028Z,5.29
2023-02-23T19:10:30.524Z,5.09
2023-02-23T19:12:57.044Z,5.06
2023-02-23T19:15:23.430Z,5.00
2023-02-23T19:17:49.852Z,4.91
2023-02-23T19:20:17.117Z,5.01
2023-02-23T19:22:43.681Z,5.01
2023-02-23T19:25:13.767Z,5.00
2023-02-23T19:27:41.274Z,4.91
2023-02-23T19:30:09.976Z,4.86
2023-02-23T19:32:39.473Z,4.95
2023-02-23T19:35:09.053Z,4.86
2023-02-23T19:37:35.827Z,4.86
2023-02-23T19:40:03.875Z,4.88
2023-02-23T19:42:33.290Z,4.87
2023-02-23T19:44:59.783Z,4.81
2023-02-23T19:47:26.177Z,4.78
2023-02-23T19:49:52.671Z,4.81
2023-02-23T19:52:19.191Z,4.72
2023-02-23T19:54:45.616Z,4.74
2023-02-23T19:57:12.098Z,4.68
2023-02-23T19:59:38.647Z,4.62
2023-02-23T20:02:05.512Z,4.58
2023-02-23T20:04:32.086Z,4.64
2023-02-23T20:06:58.504Z,4.52
2023-02-23T20:09:24.864Z,4.64
2023-02-23T20:11:51.276Z,4.69
2023-02-23T20:14:18.624Z,4.47
2023-02-23T20:16:45.147Z,4.51
2023-02-23T20:19:11.858Z,4.49
2023-02-23T20:21:39.555Z,4.51
2023-02-23T20:24:06.256Z,4.47
2023-02-23T20:26:35.485Z,4.49
2023-02-23T20:29:06.918Z,4.49
2023-02-23T20:31:35.688Z,4.40
2023-02-23T20:34:10.805Z,4.38
2023-02-23T20:36:37.988Z,4.45
2023-02-23T20:39:04.782Z,4.56
2023-02-23T20:41:32.011Z,4.39
2023-02-23T20:44:00.783Z,4.52
2023-02-23T20:46:30.905Z,4.34
2023-02-23T20:48:59.417Z,4.39
2023-02-23T20:51:27.106Z,4.41
2023-02-23T20:53:54.026Z,4.35
2023-02-23T20:56:21.925Z,4.32
2023-02-23T20:58:48.337Z,4.44
2023-02-23T21:01:18.234Z,4.35
2023-02-23T21:03:45.019Z,4.30
2023-02-23T21:06:11.594Z,4.34
2023-02-23T21:08:39.900Z,4.32
2023-02-23T21:11:07.860Z,4.38
2023-02-23T21:13:35.618Z,4.30
2023-02-23T21:16:03.170Z,4.36
2023-02-23T21:18:31.554Z,4.33
2023-02-23T21:21:06.620Z,4.32
2023-02-23T21:23:33.522Z,4.36
2023-02-23T21:26:07.131Z,4.25
2023-02-23T21:28:33.738Z,4.38
2023-02-23T21:31:00.674Z,4.39
2023-02-23T21:33:28.079Z,4.32
2023-02-23T21:35:58.531Z,4.33
2023-02-23T21:38:25.781Z,4.30
2023-02-23T21:40:52.605Z,4.28
2023-02-23T21:43:19.223Z,4.23
2023-02-23T21:45:49.064Z,4.17
2023-02-23T21:48:15.780Z,4.15
2023-02-23T21:50:42.225Z,4.20
2023-02-23T21:53:09.562Z,4.34
2023-02-23T21:55:38.533Z,4.44
2023-02-23T21:58:07.115Z,4.33
2023-02-23T22:00:35.688Z,4.33
2023-02-23T22:03:03.245Z,4.20
2023-02-23T22:05:30.007Z,4.26
2023-02-23T22:07:56.809Z,4.16
2023-02-23T22:10:24.529Z,4.31
2023-02-23T22:12:56.155Z,4.24
2023-02-23T22:15:27.528Z,4.24
2023-02-23T22:17:54.765Z,4.32
2023-02-23T22:20:21.652Z,4.31
2023-02-23T22:22:50.296Z,4.25
2023-02-23T22:25:18.926Z,4.24
2023-02-23T22:27:45.479Z,4.28
2023-02-23T22:30:13.228Z,4.27
2023-02-23T22:32:39.954Z,4.06
2023-02-23T22:35:07.171Z,4.14
2023-02-23T22:37:33.584Z,4.19
2023-02-23T22:40:01.675Z,4.21
2023-02-23T22:42:35.221Z,4.20
2023-02-23T22:45:06.094Z,4.11
2023-02-23T22:47:34.846Z,4.23
2023-02-23T22:50:01.367Z,4.18
2023-02-23T22:52:29.765Z,4.06
2023-02-23T22:54:56.455Z,4.10
2023-02-23T22:57:23.372Z,4.04
2023-02-23T22:59:59.978Z,3.98
2023-02-23T23:02:32.089Z,4.07
2023-02-23T23:04:59.771Z,3.96
2023-02-23T23:07:26.748Z,4.00
2023-02-23T23:09:54.646Z,3.95
2023-02-23T23:12:46.870Z,3.97
2023-02-23T23:15:19.725Z,3.99
2023-02-23T23:17:49.502Z,3.98
2023-02-23T23:20:23.155Z,3.98
2023-02-23T23:22:49.892Z,3.89
2023-02-23T23:25:22.554Z,3.92
2023-02-23T23:27:53.916Z,3.92
2023-02-23T23:30:28.926Z,3.90
2023-02-23T23:32:56.434Z,3.86
2023-02-23T23:35:23.303Z,3.96
2023-02-23T23:37:53.124Z,3.87
2023-02-23T23:40:24.149Z,3.86
2023-02-23T23:42:50.723Z,3.82
2023-02-23T23:45:18.674Z,3.85
2023-02-23T23:47:46.173Z,3.77
2023-02-23T23:50:15.353Z,3.72
2023-02-23T23:52:45.670Z,3.74
2023-02-23T23:55:14.664Z,3.75
2023-02-23T23:57:41.908Z,3.75
